KEKY

Bessemer Airport

Bessemer, Alabama, USA
METAR KEKY 172056Z AUTO 22009G14KT 10SM FEW033 BKN090 23/16 A3008 RMK AO2 SLP200 T02280156 58019
Observed Flight Rules
Feb-17 @ 20:56 UTC (41 minutes ago) Visual Flight Rules
Wind Visibility Clouds
220° at 9 knots
 Gusting to 14 knots
10 miles
  • Few at 3,300' AGL
  • Broken at 9,000' AGL
Temperatures Readings
Current 23°C / 73°F
Dewpoint 16°C / 61°F
Humidity 65%
Altimeter 30.08" Hg
Pressure 1020 hPa
Elevation 213
METAR KEKY 172056Z AUTO 22009G14KT 10SM FEW033 BKN090 23/16 A3008 RMK AO2 SLP200 T02280156 58019
Observed Flight Rules
Feb-17 @ 20:56 UTC
(41 minutes ago)
VFR
Wind Visibility
220° at 9 knots
 Gusting to 14 knots
10 miles
Clouds
  • Few at 3,300' AGL
  • Broken at 9,000' AGL
Temperature Dewpoint
23°C / 73°F 16°C / 61°F
Humidity Altimeter Pressure
65% 30.08" Hg 1020 hPa